sensor_id;sensor_type;location;lat;lon;timestamp;P1;durP1;ratioP1;P2;durP2;ratioP2
31238;SDS011;17871;31.584;74.450;2023-03-24T00:02:08;54.25;;;28.88;;
31238;SDS011;17871;31.584;74.450;2023-03-24T00:04:37;67.10;;;34.90;;
31238;SDS011;17871;31.584;74.450;2023-03-24T00:07:09;74.53;;;37.47;;
31238;SDS011;17871;31.584;74.450;2023-03-24T00:09:42;79.22;;;38.53;;
31238;SDS011;17871;31.584;74.450;2023-03-24T00:12:13;88.57;;;42.47;;
31238;SDS011;17871;31.584;74.450;2023-03-24T00:14:45;110.00;;;48.17;;
31238;SDS011;17871;31.584;74.450;2023-03-24T00:17:14;100.18;;;50.88;;
31238;SDS011;17871;31.584;74.450;2023-03-24T00:19:47;94.05;;;47.85;;
31238;SDS011;17871;31.584;74.450;2023-03-24T00:22:16;99.20;;;47.80;;
31238;SDS011;17871;31.584;74.450;2023-03-24T00:24:48;99.80;;;48.67;;
31238;SDS011;17871;31.584;74.450;2023-03-24T00:27:17;102.60;;;49.88;;
31238;SDS011;17871;31.584;74.450;2023-03-24T00:29:46;97.88;;;48.30;;
31238;SDS011;17871;31.584;74.450;2023-03-24T00:32:15;93.18;;;46.67;;
31238;SDS011;17871;31.584;74.450;2023-03-24T00:34:44;94.15;;;47.33;;
31238;SDS011;17871;31.584;74.450;2023-03-24T00:37:13;92.10;;;46.53;;
31238;SDS011;17871;31.584;74.450;2023-03-24T00:39:42;87.65;;;47.15;;
31238;SDS011;17871;31.584;74.450;2023-03-24T00:42:11;99.03;;;46.88;;
31238;SDS011;17871;31.584;74.450;2023-03-24T00:44:41;99.07;;;48.88;;
31238;SDS011;17871;31.584;74.450;2023-03-24T00:47:11;102.18;;;48.08;;
31238;SDS011;17871;31.584;74.450;2023-03-24T00:49:40;92.13;;;46.42;;
31238;SDS011;17871;31.584;74.450;2023-03-24T00:52:13;114.07;;;48.67;;
31238;SDS011;17871;31.584;74.450;2023-03-24T00:54:48;108.75;;;43.88;;
31238;SDS011;17871;31.584;74.450;2023-03-24T00:57:19;104.45;;;42.88;;
31238;SDS011;17871;31.584;74.450;2023-03-24T00:59:53;84.55;;;39.75;;
31238;SDS011;17871;31.584;74.450;2023-03-24T01:02:24;87.10;;;36.83;;
31238;SDS011;17871;31.584;74.450;2023-03-24T01:04:58;80.65;;;36.85;;
31238;SDS011;17871;31.584;74.450;2023-03-24T01:07:34;98.30;;;43.35;;
31238;SDS011;17871;31.584;74.450;2023-03-24T01:10:05;103.40;;;42.80;;
31238;SDS011;17871;31.584;74.450;2023-03-24T01:12:38;99.15;;;47.53;;
31238;SDS011;17871;31.584;74.450;2023-03-24T01:15:18;106.90;;;52.58;;
31238;SDS011;17871;31.584;74.450;2023-03-24T01:17:50;101.55;;;46.72;;
31238;SDS011;17871;31.584;74.450;2023-03-24T01:20:21;98.22;;;49.92;;
31238;SDS011;17871;31.584;74.450;2023-03-24T01:22:54;115.63;;;50.88;;
31238;SDS011;17871;31.584;74.450;2023-03-24T01:25:24;121.43;;;50.60;;
31238;SDS011;17871;31.584;74.450;2023-03-24T01:27:55;98.47;;;49.03;;
31238;SDS011;17871;31.584;74.450;2023-03-24T01:30:27;97.00;;;48.95;;
31238;SDS011;17871;31.584;74.450;2023-03-24T01:32:58;107.75;;;50.67;;
31238;SDS011;17871;31.584;74.450;2023-03-24T01:35:28;104.80;;;49.53;;
31238;SDS011;17871;31.584;74.450;2023-03-24T01:37:58;103.13;;;49.00;;
31238;SDS011;17871;31.584;74.450;2023-03-24T01:40:29;104.30;;;50.55;;
31238;SDS011;17871;31.584;74.450;2023-03-24T01:43:01;115.45;;;52.50;;
31238;SDS011;17871;31.584;74.450;2023-03-24T01:48:15;109.00;;;50.47;;
31238;SDS011;17871;31.584;74.450;2023-03-24T01:50:54;97.93;;;48.65;;
31238;SDS011;17871;31.584;74.450;2023-03-24T01:53:29;112.00;;;48.88;;
31238;SDS011;17871;31.584;74.450;2023-03-24T01:56:02;100.78;;;50.08;;
31238;SDS011;17871;31.584;74.450;2023-03-24T01:58:39;117.03;;;51.72;;
31238;SDS011;17871;31.584;74.450;2023-03-24T02:01:28;91.10;;;45.90;;
31238;SDS011;17871;31.584;74.450;2023-03-24T02:04:18;93.95;;;46.08;;
31238;SDS011;17871;31.584;74.450;2023-03-24T02:06:49;92.15;;;45.75;;
31238;SDS011;17871;31.584;74.450;2023-03-24T02:09:19;80.43;;;43.47;;
31238;SDS011;17871;31.584;74.450;2023-03-24T02:11:49;91.10;;;42.85;;
31238;SDS011;17871;31.584;74.450;2023-03-24T02:14:19;83.40;;;42.03;;
31238;SDS011;17871;31.584;74.450;2023-03-24T02:16:53;57.78;;;31.65;;
31238;SDS011;17871;31.584;74.450;2023-03-24T02:19:52;63.50;;;30.63;;
31238;SDS011;17871;31.584;74.450;2023-03-24T02:36:32;67.00;;;32.58;;
31238;SDS011;17871;31.584;74.450;2023-03-24T02:47:45;69.45;;;33.40;;
31238;SDS011;17871;31.584;74.450;2023-03-24T02:50:24;68.45;;;34.47;;
31238;SDS011;17871;31.584;74.450;2023-03-24T02:58:44;70.68;;;36.00;;
31238;SDS011;17871;31.584;74.450;2023-03-24T03:04:27;83.07;;;35.33;;
31238;SDS011;17871;31.584;74.450;2023-03-24T03:07:06;71.80;;;34.90;;
31238;SDS011;17871;31.584;74.450;2023-03-24T03:09:40;63.97;;;31.92;;
31238;SDS011;17871;31.584;74.450;2023-03-24T03:12:14;108.65;;;34.40;;
31238;SDS011;17871;31.584;74.450;2023-03-24T03:15:00;60.72;;;30.05;;
31238;SDS011;17871;31.584;74.450;2023-03-24T03:17:45;58.10;;;29.90;;
31238;SDS011;17871;31.584;74.450;2023-03-24T03:20:21;51.22;;;30.02;;
31238;SDS011;17871;31.584;74.450;2023-03-24T03:23:04;52.80;;;30.60;;
31238;SDS011;17871;31.584;74.450;2023-03-24T03:25:40;46.88;;;26.77;;
31238;SDS011;17871;31.584;74.450;2023-03-24T03:28:14;45.83;;;29.77;;
31238;SDS011;17871;31.584;74.450;2023-03-24T03:30:52;48.78;;;28.45;;
31238;SDS011;17871;31.584;74.450;2023-03-24T03:33:29;48.15;;;28.80;;
31238;SDS011;17871;31.584;74.450;2023-03-24T03:39:07;45.13;;;27.05;;
31238;SDS011;17871;31.584;74.450;2023-03-24T03:41:42;58.50;;;28.10;;
31238;SDS011;17871;31.584;74.450;2023-03-24T03:44:12;48.83;;;27.98;;
31238;SDS011;17871;31.584;74.450;2023-03-24T03:46:41;47.90;;;27.60;;
31238;SDS011;17871;31.584;74.450;2023-03-24T03:49:16;51.90;;;27.70;;
31238;SDS011;17871;31.584;74.450;2023-03-24T03:51:46;46.95;;;26.73;;
31238;SDS011;17871;31.584;74.450;2023-03-24T03:54:15;42.13;;;25.80;;
31238;SDS011;17871;31.584;74.450;2023-03-24T03:56:45;43.70;;;25.42;;
31238;SDS011;17871;31.584;74.450;2023-03-24T03:59:28;41.00;;;25.10;;
31238;SDS011;17871;31.584;74.450;2023-03-24T04:08:35;45.00;;;25.88;;
31238;SDS011;17871;31.584;74.450;2023-03-24T04:21:02;58.00;;;29.55;;
31238;SDS011;17871;31.584;74.450;2023-03-24T04:26:35;45.75;;;26.65;;
31238;SDS011;17871;31.584;74.450;2023-03-24T04:34:37;33.42;;;19.80;;
31238;SDS011;17871;31.584;74.450;2023-03-24T04:37:32;39.63;;;18.73;;
31238;SDS011;17871;31.584;74.450;2023-03-24T04:40:18;40.92;;;22.27;;
31238;SDS011;17871;31.584;74.450;2023-03-24T04:42:53;49.28;;;24.67;;
31238;SDS011;17871;31.584;74.450;2023-03-24T04:45:30;35.50;;;22.25;;
31238;SDS011;17871;31.584;74.450;2023-03-24T04:48:19;36.80;;;20.65;;
31238;SDS011;17871;31.584;74.450;2023-03-24T04:51:03;28.58;;;16.63;;
31238;SDS011;17871;31.584;74.450;2023-03-24T04:53:50;26.25;;;15.13;;
31238;SDS011;17871;31.584;74.450;2023-03-24T04:59:29;24.38;;;11.05;;
31238;SDS011;17871;31.584;74.450;2023-03-24T05:02:04;13.75;;;8.40;;
31238;SDS011;17871;31.584;74.450;2023-03-24T05:04:49;15.77;;;6.68;;
31238;SDS011;17871;31.584;74.450;2023-03-24T05:07:25;12.52;;;7.57;;
31238;SDS011;17871;31.584;74.450;2023-03-24T05:09:58;14.10;;;8.05;;
31238;SDS011;17871;31.584;74.450;2023-03-24T05:12:36;13.27;;;8.52;;
31238;SDS011;17871;31.584;74.450;2023-03-24T05:15:28;17.15;;;9.13;;
31238;SDS011;17871;31.584;74.450;2023-03-24T05:18:13;13.88;;;8.05;;
31238;SDS011;17871;31.584;74.450;2023-03-24T05:20:42;13.75;;;7.57;;
31238;SDS011;17871;31.584;74.450;2023-03-24T05:23:17;14.65;;;6.93;;
31238;SDS011;17871;31.584;74.450;2023-03-24T05:25:47;8.07;;;4.60;;
31238;SDS011;17871;31.584;74.450;2023-03-24T05:28:18;7.07;;;4.30;;
31238;SDS011;17871;31.584;74.450;2023-03-24T05:30:47;5.07;;;3.35;;
31238;SDS011;17871;31.584;74.450;2023-03-24T05:33:33;5.55;;;3.78;;
31238;SDS011;17871;31.584;74.450;2023-03-24T05:36:03;5.38;;;3.05;;
31238;SDS011;17871;31.584;74.450;2023-03-24T05:38:37;7.97;;;3.42;;
31238;SDS011;17871;31.584;74.450;2023-03-24T05:41:07;8.30;;;4.65;;
31238;SDS011;17871;31.584;74.450;2023-03-24T05:43:40;9.02;;;4.78;;
31238;SDS011;17871;31.584;74.450;2023-03-24T05:46:12;14.87;;;5.37;;
31238;SDS011;17871;31.584;74.450;2023-03-24T05:48:42;9.25;;;4.20;;
31238;SDS011;17871;31.584;74.450;2023-03-24T05:51:14;5.72;;;3.83;;
31238;SDS011;17871;31.584;74.450;2023-03-24T05:53:46;6.27;;;3.67;;
31238;SDS011;17871;31.584;74.450;2023-03-24T05:56:17;7.50;;;4.15;;
31238;SDS011;17871;31.584;74.450;2023-03-24T05:59:07;8.35;;;3.67;;
31238;SDS011;17871;31.584;74.450;2023-03-24T06:01:57;6.50;;;3.60;;
31238;SDS011;17871;31.584;74.450;2023-03-24T06:04:37;7.13;;;3.92;;
31238;SDS011;17871;31.584;74.450;2023-03-24T06:07:12;12.00;;;5.10;;
31238;SDS011;17871;31.584;74.450;2023-03-24T06:09:44;9.17;;;4.23;;
31238;SDS011;17871;31.584;74.450;2023-03-24T06:12:19;5.88;;;3.78;;
31238;SDS011;17871;31.584;74.450;2023-03-24T06:14:53;8.27;;;3.75;;
31238;SDS011;17871;31.584;74.450;2023-03-24T06:17:23;9.80;;;3.47;;
31238;SDS011;17871;31.584;74.450;2023-03-24T06:19:57;7.53;;;3.20;;
31238;SDS011;17871;31.584;74.450;2023-03-24T06:22:55;10.30;;;4.78;;
31238;SDS011;17871;31.584;74.450;2023-03-24T06:25:34;19.60;;;8.25;;
31238;SDS011;17871;31.584;74.450;2023-03-24T06:28:23;18.52;;;5.80;;
31238;SDS011;17871;31.584;74.450;2023-03-24T06:30:58;16.75;;;8.02;;
31238;SDS011;17871;31.584;74.450;2023-03-24T06:33:31;25.15;;;8.45;;
31238;SDS011;17871;31.584;74.450;2023-03-24T06:36:05;37.45;;;16.48;;
31238;SDS011;17871;31.584;74.450;2023-03-24T06:38:35;19.15;;;7.70;;
31238;SDS011;17871;31.584;74.450;2023-03-24T06:41:05;36.75;;;15.23;;
31238;SDS011;17871;31.584;74.450;2023-03-24T06:43:35;37.30;;;8.75;;
31238;SDS011;17871;31.584;74.450;2023-03-24T06:46:04;17.98;;;4.97;;
31238;SDS011;17871;31.584;74.450;2023-03-24T06:48:38;26.77;;;5.78;;
31238;SDS011;17871;31.584;74.450;2023-03-24T06:51:07;22.17;;;8.00;;
31238;SDS011;17871;31.584;74.450;2023-03-24T06:53:39;11.32;;;4.30;;
31238;SDS011;17871;31.584;74.450;2023-03-24T06:56:10;16.60;;;7.43;;
31238;SDS011;17871;31.584;74.450;2023-03-24T06:58:49;29.50;;;10.13;;
31238;SDS011;17871;31.584;74.450;2023-03-24T07:01:31;22.15;;;9.02;;
31238;SDS011;17871;31.584;74.450;2023-03-24T07:04:17;23.55;;;9.57;;
31238;SDS011;17871;31.584;74.450;2023-03-24T07:06:52;19.10;;;3.67;;
31238;SDS011;17871;31.584;74.450;2023-03-24T07:09:45;11.23;;;6.10;;
31238;SDS011;17871;31.584;74.450;2023-03-24T07:12:15;18.42;;;6.55;;
31238;SDS011;17871;31.584;74.450;2023-03-24T07:14:43;14.82;;;5.30;;
31238;SDS011;17871;31.584;74.450;2023-03-24T07:17:13;14.98;;;6.03;;
31238;SDS011;17871;31.584;74.450;2023-03-24T07:19:54;23.13;;;7.90;;
31238;SDS011;17871;31.584;74.450;2023-03-24T07:22:38;11.93;;;5.75;;
31238;SDS011;17871;31.584;74.450;2023-03-24T07:25:30;6.33;;;2.83;;
31238;SDS011;17871;31.584;74.450;2023-03-24T07:28:15;13.07;;;6.50;;
31238;SDS011;17871;31.584;74.450;2023-03-24T07:30:45;15.00;;;7.47;;
31238;SDS011;17871;31.584;74.450;2023-03-24T07:33:18;8.25;;;5.72;;
31238;SDS011;17871;31.584;74.450;2023-03-24T07:35:48;35.10;;;13.13;;
31238;SDS011;17871;31.584;74.450;2023-03-24T07:38:17;14.18;;;6.95;;
31238;SDS011;17871;31.584;74.450;2023-03-24T07:40:51;18.15;;;4.22;;
31238;SDS011;17871;31.584;74.450;2023-03-24T07:43:21;14.48;;;4.22;;
31238;SDS011;17871;31.584;74.450;2023-03-24T07:46:02;25.27;;;4.88;;
31238;SDS011;17871;31.584;74.450;2023-03-24T07:48:33;30.08;;;5.07;;
31238;SDS011;17871;31.584;74.450;2023-03-24T07:51:02;16.65;;;3.58;;
31238;SDS011;17871;31.584;74.450;2023-03-24T07:54:00;13.48;;;4.25;;
31238;SDS011;17871;31.584;74.450;2023-03-24T07:56:38;20.52;;;6.18;;
31238;SDS011;17871;31.584;74.450;2023-03-24T07:59:10;22.17;;;6.80;;
31238;SDS011;17871;31.584;74.450;2023-03-24T08:01:48;30.13;;;9.77;;
31238;SDS011;17871;31.584;74.450;2023-03-24T08:04:49;22.27;;;8.32;;
31238;SDS011;17871;31.584;74.450;2023-03-24T08:07:50;11.45;;;5.90;;
31238;SDS011;17871;31.584;74.450;2023-03-24T08:10:23;10.27;;;4.68;;
31238;SDS011;17871;31.584;74.450;2023-03-24T08:15:25;16.33;;;6.15;;
31238;SDS011;17871;31.584;74.450;2023-03-24T08:17:55;29.70;;;9.20;;
31238;SDS011;17871;31.584;74.450;2023-03-24T08:20:24;24.55;;;9.43;;
31238;SDS011;17871;31.584;74.450;2023-03-24T08:22:54;12.35;;;5.47;;
31238;SDS011;17871;31.584;74.450;2023-03-24T08:25:23;33.53;;;11.13;;
31238;SDS011;17871;31.584;74.450;2023-03-24T08:27:53;15.90;;;7.82;;
31238;SDS011;17871;31.584;74.450;2023-03-24T08:30:23;11.20;;;6.07;;
31238;SDS011;17871;31.584;74.450;2023-03-24T08:32:54;42.70;;;12.07;;
31238;SDS011;17871;31.584;74.450;2023-03-24T08:35:30;24.13;;;11.27;;
31238;SDS011;17871;31.584;74.450;2023-03-24T08:38:01;22.75;;;11.13;;
31238;SDS011;17871;31.584;74.450;2023-03-24T08:40:33;25.25;;;10.25;;
31238;SDS011;17871;31.584;74.450;2023-03-24T08:43:05;23.85;;;12.15;;
31238;SDS011;17871;31.584;74.450;2023-03-24T08:45:36;24.83;;;12.38;;
31238;SDS011;17871;31.584;74.450;2023-03-24T08:48:06;23.90;;;10.52;;
31238;SDS011;17871;31.584;74.450;2023-03-24T08:50:37;16.13;;;8.60;;
31238;SDS011;17871;31.584;74.450;2023-03-24T08:55:41;16.27;;;8.40;;
31238;SDS011;17871;31.584;74.450;2023-03-24T08:58:13;17.70;;;9.90;;
31238;SDS011;17871;31.584;74.450;2023-03-24T09:00:43;14.63;;;9.10;;
31238;SDS011;17871;31.584;74.450;2023-03-24T09:03:17;21.13;;;10.80;;
31238;SDS011;17871;31.584;74.450;2023-03-24T09:05:49;17.58;;;8.65;;
31238;SDS011;17871;31.584;74.450;2023-03-24T09:08:18;17.92;;;9.40;;
31238;SDS011;17871;31.584;74.450;2023-03-24T09:10:47;14.15;;;6.70;;
31238;SDS011;17871;31.584;74.450;2023-03-24T09:13:19;13.70;;;8.73;;
31238;SDS011;17871;31.584;74.450;2023-03-24T09:15:49;18.30;;;8.52;;
31238;SDS011;17871;31.584;74.450;2023-03-24T09:18:20;20.13;;;7.18;;
31238;SDS011;17871;31.584;74.450;2023-03-24T09:20:49;17.80;;;7.00;;
31238;SDS011;17871;31.584;74.450;2023-03-24T09:23:19;8.80;;;6.20;;
31238;SDS011;17871;31.584;74.450;2023-03-24T09:25:49;13.18;;;6.15;;
31238;SDS011;17871;31.584;74.450;2023-03-24T09:28:20;14.63;;;7.23;;
31238;SDS011;17871;31.584;74.450;2023-03-24T09:30:50;13.77;;;6.32;;
31238;SDS011;17871;31.584;74.450;2023-03-24T09:33:24;15.52;;;7.25;;
31238;SDS011;17871;31.584;74.450;2023-03-24T09:35:54;12.93;;;6.22;;
31238;SDS011;17871;31.584;74.450;2023-03-24T09:38:27;20.63;;;7.60;;
31238;SDS011;17871;31.584;74.450;2023-03-24T09:40:57;18.77;;;8.07;;
31238;SDS011;17871;31.584;74.450;2023-03-24T09:46:28;33.53;;;16.17;;
31238;SDS011;17871;31.584;74.450;2023-03-24T09:48:58;36.80;;;15.95;;
31238;SDS011;17871;31.584;74.450;2023-03-24T09:51:29;33.85;;;17.15;;
31238;SDS011;17871;31.584;74.450;2023-03-24T09:56:36;34.05;;;14.23;;
31238;SDS011;17871;31.584;74.450;2023-03-24T09:59:11;29.77;;;16.10;;
31238;SDS011;17871;31.584;74.450;2023-03-24T10:01:41;29.40;;;17.67;;
31238;SDS011;17871;31.584;74.450;2023-03-24T10:04:15;35.65;;;19.75;;
31238;SDS011;17871;31.584;74.450;2023-03-24T10:06:49;49.47;;;26.67;;
31238;SDS011;17871;31.584;74.450;2023-03-24T10:09:25;70.80;;;34.17;;
31238;SDS011;17871;31.584;74.450;2023-03-24T10:19:51;24.52;;;15.15;;
31238;SDS011;17871;31.584;74.450;2023-03-24T10:22:29;26.77;;;16.48;;
31238;SDS011;17871;31.584;74.450;2023-03-24T10:28:08;33.75;;;22.83;;
31238;SDS011;17871;31.584;74.450;2023-03-24T10:30:54;49.38;;;31.58;;
31238;SDS011;17871;31.584;74.450;2023-03-24T10:33:28;72.40;;;39.90;;
31238;SDS011;17871;31.584;74.450;2023-03-24T10:36:03;58.40;;;37.25;;
31238;SDS011;17871;31.584;74.450;2023-03-24T10:38:38;61.10;;;36.53;;
31238;SDS011;17871;31.584;74.450;2023-03-24T10:41:11;55.38;;;29.95;;
31238;SDS011;17871;31.584;74.450;2023-03-24T10:43:50;43.07;;;22.07;;
31238;SDS011;17871;31.584;74.450;2023-03-24T10:46:21;40.08;;;20.65;;
31238;SDS011;17871;31.584;74.450;2023-03-24T10:49:15;35.90;;;20.40;;
31238;SDS011;17871;31.584;74.450;2023-03-24T10:54:18;34.35;;;20.27;;
31238;SDS011;17871;31.584;74.450;2023-03-24T11:02:02;36.08;;;19.13;;
31238;SDS011;17871;31.584;74.450;2023-03-24T11:04:52;40.22;;;20.45;;
31238;SDS011;17871;31.584;74.450;2023-03-24T11:07:37;48.33;;;27.23;;
31238;SDS011;17871;31.584;74.450;2023-03-24T11:12:41;50.83;;;29.95;;
31238;SDS011;17871;31.584;74.450;2023-03-24T11:15:27;48.75;;;28.33;;
31238;SDS011;17871;31.584;74.450;2023-03-24T11:23:19;46.83;;;26.58;;
31238;SDS011;17871;31.584;74.450;2023-03-24T11:26:34;47.05;;;25.63;;
31238;SDS011;17871;31.584;74.450;2023-03-24T11:28:46;49.00;;;27.15;;
31238;SDS011;17871;31.584;74.450;2023-03-24T11:31:25;46.38;;;26.35;;
31238;SDS011;17871;31.584;74.450;2023-03-24T11:39:12;73.25;;;40.75;;
31238;SDS011;17871;31.584;74.450;2023-03-24T11:42:03;56.78;;;32.00;;
31238;SDS011;17871;31.584;74.450;2023-03-24T11:44:51;33.58;;;16.83;;
31238;SDS011;17871;31.584;74.450;2023-03-24T11:47:30;19.75;;;13.73;;
31238;SDS011;17871;31.584;74.450;2023-03-24T11:52:43;25.50;;;14.10;;
31238;SDS011;17871;31.584;74.450;2023-03-24T11:55:17;27.00;;;16.30;;
31238;SDS011;17871;31.584;74.450;2023-03-24T11:58:18;24.95;;;16.13;;
31238;SDS011;17871;31.584;74.450;2023-03-24T12:00:51;26.63;;;16.42;;
31238;SDS011;17871;31.584;74.450;2023-03-24T12:18:07;12.13;;;4.85;;
31238;SDS011;17871;31.584;74.450;2023-03-24T12:21:01;7.63;;;4.55;;
31238;SDS011;17871;31.584;74.450;2023-03-24T12:23:44;5.60;;;4.05;;
31238;SDS011;17871;31.584;74.450;2023-03-24T12:26:19;8.75;;;4.32;;
31238;SDS011;17871;31.584;74.450;2023-03-24T12:37:43;6.90;;;4.28;;
31238;SDS011;17871;31.584;74.450;2023-03-24T12:44:04;14.05;;;8.25;;
31238;SDS011;17871;31.584;74.450;2023-03-24T12:48:50;12.40;;;8.73;;
31238;SDS011;17871;31.584;74.450;2023-03-24T12:51:34;11.43;;;7.95;;
31238;SDS011;17871;31.584;74.450;2023-03-24T12:55:06;15.90;;;10.13;;
31238;SDS011;17871;31.584;74.450;2023-03-24T12:57:14;19.50;;;11.95;;
31238;SDS011;17871;31.584;74.450;2023-03-24T12:59:47;19.77;;;12.02;;
31238;SDS011;17871;31.584;74.450;2023-03-24T13:02:37;20.90;;;13.68;;
31238;SDS011;17871;31.584;74.450;2023-03-24T13:05:14;19.83;;;12.23;;
31238;SDS011;17871;31.584;74.450;2023-03-24T13:07:49;22.55;;;13.75;;
31238;SDS011;17871;31.584;74.450;2023-03-24T13:10:25;26.67;;;15.98;;
31238;SDS011;17871;31.584;74.450;2023-03-24T13:16:13;41.90;;;23.23;;
31238;SDS011;17871;31.584;74.450;2023-03-24T13:18:47;45.13;;;24.40;;
31238;SDS011;17871;31.584;74.450;2023-03-24T13:21:21;39.75;;;24.80;;
31238;SDS011;17871;31.584;74.450;2023-03-24T13:35:04;40.30;;;20.67;;
31238;SDS011;17871;31.584;74.450;2023-03-24T13:37:50;29.13;;;17.55;;
31238;SDS011;17871;31.584;74.450;2023-03-24T13:40:25;25.45;;;16.40;;
31238;SDS011;17871;31.584;74.450;2023-03-24T13:42:57;20.17;;;14.07;;
31238;SDS011;17871;31.584;74.450;2023-03-24T13:45:33;20.23;;;12.95;;
31238;SDS011;17871;31.584;74.450;2023-03-24T13:51:21;25.27;;;14.23;;
31238;SDS011;17871;31.584;74.450;2023-03-24T13:54:10;28.13;;;18.13;;
31238;SDS011;17871;31.584;74.450;2023-03-24T14:05:07;168.88;;;99.35;;
31238;SDS011;17871;31.584;74.450;2023-03-24T14:23:30;79.00;;;47.95;;
31238;SDS011;17871;31.584;74.450;2023-03-24T14:26:02;74.03;;;43.17;;
31238;SDS011;17871;31.584;74.450;2023-03-24T14:28:39;77.75;;;43.65;;
31238;SDS011;17871;31.584;74.450;2023-03-24T14:41:46;59.35;;;34.58;;
31238;SDS011;17871;31.584;74.450;2023-03-24T14:47:15;62.75;;;33.65;;
31238;SDS011;17871;31.584;74.450;2023-03-24T14:49:50;56.70;;;31.55;;
31238;SDS011;17871;31.584;74.450;2023-03-24T14:54:59;33.97;;;20.60;;
31238;SDS011;17871;31.584;74.450;2023-03-24T14:57:36;39.92;;;21.38;;
31238;SDS011;17871;31.584;74.450;2023-03-24T15:00:15;37.60;;;22.58;;
31238;SDS011;17871;31.584;74.450;2023-03-24T15:02:50;69.53;;;36.58;;
31238;SDS011;17871;31.584;74.450;2023-03-24T15:15:59;133.48;;;68.45;;
31238;SDS011;17871;31.584;74.450;2023-03-24T15:18:30;187.23;;;98.82;;
31238;SDS011;17871;31.584;74.450;2023-03-24T15:21:00;195.32;;;104.20;;
31238;SDS011;17871;31.584;74.450;2023-03-24T15:23:43;191.98;;;100.68;;
31238;SDS011;17871;31.584;74.450;2023-03-24T15:26:15;180.35;;;92.20;;
31238;SDS011;17871;31.584;74.450;2023-03-24T15:28:46;133.23;;;71.00;;
31238;SDS011;17871;31.584;74.450;2023-03-24T15:31:21;110.45;;;58.30;;
31238;SDS011;17871;31.584;74.450;2023-03-24T15:33:52;67.22;;;38.85;;
31238;SDS011;17871;31.584;74.450;2023-03-24T15:36:21;53.83;;;29.27;;
31238;SDS011;17871;31.584;74.450;2023-03-24T15:38:50;47.75;;;27.83;;
31238;SDS011;17871;31.584;74.450;2023-03-24T15:41:20;36.75;;;23.83;;
31238;SDS011;17871;31.584;74.450;2023-03-24T15:43:51;39.13;;;22.73;;
31238;SDS011;17871;31.584;74.450;2023-03-24T15:46:28;46.83;;;24.80;;
31238;SDS011;17871;31.584;74.450;2023-03-24T15:48:58;47.92;;;28.00;;
31238;SDS011;17871;31.584;74.450;2023-03-24T15:54:25;81.18;;;45.75;;
31238;SDS011;17871;31.584;74.450;2023-03-24T16:02:44;152.73;;;85.32;;
31238;SDS011;17871;31.584;74.450;2023-03-24T16:10:35;95.72;;;49.55;;
31238;SDS011;17871;31.584;74.450;2023-03-24T16:13:17;86.82;;;43.42;;
31238;SDS011;17871;31.584;74.450;2023-03-24T16:15:54;76.43;;;39.50;;
31238;SDS011;17871;31.584;74.450;2023-03-24T16:18:29;61.83;;;30.35;;
31238;SDS011;17871;31.584;74.450;2023-03-24T16:21:02;51.45;;;30.65;;
31238;SDS011;17871;31.584;74.450;2023-03-24T16:23:40;59.75;;;30.92;;
31238;SDS011;17871;31.584;74.450;2023-03-24T16:26:15;49.60;;;27.30;;
31238;SDS011;17871;31.584;74.450;2023-03-24T16:28:46;46.17;;;26.30;;
31238;SDS011;17871;31.584;74.450;2023-03-24T16:31:25;43.40;;;26.05;;
31238;SDS011;17871;31.584;74.450;2023-03-24T16:33:58;48.65;;;26.77;;
31238;SDS011;17871;31.584;74.450;2023-03-24T16:36:26;45.53;;;27.35;;
31238;SDS011;17871;31.584;74.450;2023-03-24T16:38:56;69.82;;;37.95;;
31238;SDS011;17871;31.584;74.450;2023-03-24T16:41:26;69.53;;;39.80;;
31238;SDS011;17871;31.584;74.450;2023-03-24T16:43:55;95.82;;;47.63;;
31238;SDS011;17871;31.584;74.450;2023-03-24T16:48:53;136.32;;;69.93;;
31238;SDS011;17871;31.584;74.450;2023-03-24T16:51:22;159.90;;;81.38;;
31238;SDS011;17871;31.584;74.450;2023-03-24T16:53:51;199.25;;;96.80;;
31238;SDS011;17871;31.584;74.450;2023-03-24T16:56:21;189.98;;;91.53;;
31238;SDS011;17871;31.584;74.450;2023-03-24T16:58:51;181.65;;;88.18;;
31238;SDS011;17871;31.584;74.450;2023-03-24T17:04:02;161.90;;;77.18;;
31238;SDS011;17871;31.584;74.450;2023-03-24T17:06:45;159.00;;;76.18;;
31238;SDS011;17871;31.584;74.450;2023-03-24T17:09:17;160.73;;;74.85;;
31238;SDS011;17871;31.584;74.450;2023-03-24T17:11:51;133.10;;;66.47;;
31238;SDS011;17871;31.584;74.450;2023-03-24T17:14:23;149.23;;;63.38;;
31238;SDS011;17871;31.584;74.450;2023-03-24T17:16:52;99.80;;;49.28;;
31238;SDS011;17871;31.584;74.450;2023-03-24T17:19:21;89.03;;;43.80;;
31238;SDS011;17871;31.584;74.450;2023-03-24T17:21:54;74.97;;;37.75;;
31238;SDS011;17871;31.584;74.450;2023-03-24T17:24:24;69.88;;;35.22;;
31238;SDS011;17871;31.584;74.450;2023-03-24T17:26:53;50.45;;;29.77;;
31238;SDS011;17871;31.584;74.450;2023-03-24T17:29:21;46.58;;;25.45;;
31238;SDS011;17871;31.584;74.450;2023-03-24T17:31:51;47.25;;;24.55;;
31238;SDS011;17871;31.584;74.450;2023-03-24T17:34:21;42.15;;;22.65;;
31238;SDS011;17871;31.584;74.450;2023-03-24T17:36:51;57.05;;;27.95;;
31238;SDS011;17871;31.584;74.450;2023-03-24T17:39:20;43.45;;;20.92;;
31238;SDS011;17871;31.584;74.450;2023-03-24T17:41:49;31.13;;;19.13;;
31238;SDS011;17871;31.584;74.450;2023-03-24T17:44:18;32.13;;;18.77;;
31238;SDS011;17871;31.584;74.450;2023-03-24T17:46:47;36.25;;;19.42;;
31238;SDS011;17871;31.584;74.450;2023-03-24T17:49:16;43.33;;;22.10;;
31238;SDS011;17871;31.584;74.450;2023-03-24T17:51:45;30.48;;;20.23;;
31238;SDS011;17871;31.584;74.450;2023-03-24T17:54:14;38.35;;;20.67;;
31238;SDS011;17871;31.584;74.450;2023-03-24T17:56:43;38.83;;;21.60;;
31238;SDS011;17871;31.584;74.450;2023-03-24T17:59:12;39.92;;;24.35;;
31238;SDS011;17871;31.584;74.450;2023-03-24T18:01:41;41.05;;;23.85;;
31238;SDS011;17871;31.584;74.450;2023-03-24T18:04:10;40.28;;;22.33;;
31238;SDS011;17871;31.584;74.450;2023-03-24T18:06:39;33.65;;;20.58;;
31238;SDS011;17871;31.584;74.450;2023-03-24T18:09:11;35.50;;;19.40;;
31238;SDS011;17871;31.584;74.450;2023-03-24T18:11:40;32.63;;;18.88;;
31238;SDS011;17871;31.584;74.450;2023-03-24T18:14:10;40.60;;;22.77;;
31238;SDS011;17871;31.584;74.450;2023-03-24T18:16:38;48.30;;;27.20;;
31238;SDS011;17871;31.584;74.450;2023-03-24T18:19:08;61.80;;;32.55;;
31238;SDS011;17871;31.584;74.450;2023-03-24T18:21:37;75.78;;;40.67;;
31238;SDS011;17871;31.584;74.450;2023-03-24T18:24:07;99.90;;;51.42;;
31238;SDS011;17871;31.584;74.450;2023-03-24T18:26:36;90.25;;;49.75;;
31238;SDS011;17871;31.584;74.450;2023-03-24T18:29:05;79.43;;;45.38;;
31238;SDS011;17871;31.584;74.450;2023-03-24T18:31:34;54.22;;;30.02;;
31238;SDS011;17871;31.584;74.450;2023-03-24T18:34:04;41.25;;;22.73;;
31238;SDS011;17871;31.584;74.450;2023-03-24T18:36:33;41.30;;;23.63;;
31238;SDS011;17871;31.584;74.450;2023-03-24T18:39:04;52.28;;;27.88;;
31238;SDS011;17871;31.584;74.450;2023-03-24T18:41:35;58.20;;;31.90;;